createdAt,value
2022-10-08T00:00:57.474Z,23.25
2022-10-08T00:03:27.498Z,27.13
2022-10-08T00:06:18.438Z,23.65
2022-10-08T00:08:49.413Z,20.65
2022-10-08T00:11:20.111Z,32.08
2022-10-08T00:13:48.491Z,20.27
2022-10-08T00:16:32.242Z,26.10
2022-10-08T00:19:01.999Z,30.85
2022-10-08T00:21:31.467Z,25.00
2022-10-08T00:23:58.944Z,20.40
2022-10-08T00:26:27.326Z,17.38
2022-10-08T00:28:56.558Z,26.20
2022-10-08T00:31:26.434Z,18.85
2022-10-08T00:33:55.625Z,25.80
2022-10-08T00:36:24.206Z,32.35
2022-10-08T00:38:58.173Z,24.00
2022-10-08T00:41:26.640Z,19.77
2022-10-08T00:43:56.453Z,19.95
2022-10-08T00:46:41.478Z,15.55
2022-10-08T00:49:11.482Z,22.38
2022-10-08T00:51:50.970Z,26.75
2022-10-08T00:54:19.630Z,33.55
2022-10-08T00:56:50.361Z,24.08
2022-10-08T00:59:17.395Z,23.63
2022-10-08T01:01:44.659Z,25.00
2022-10-08T01:04:13.364Z,34.75
2022-10-08T01:06:57.952Z,25.40
2022-10-08T01:09:35.456Z,24.98
2022-10-08T01:12:11.074Z,27.75
2022-10-08T01:14:57.702Z,24.48
2022-10-08T01:17:34.774Z,22.63
2022-10-08T01:20:07.281Z,29.85
2022-10-08T01:22:42.642Z,17.70
2022-10-08T01:25:33.851Z,20.98
2022-10-08T01:28:28.391Z,29.20
2022-10-08T01:31:18.068Z,33.67
2022-10-08T01:33:47.459Z,27.27
2022-10-08T01:36:17.935Z,27.60
2022-10-08T01:38:51.310Z,28.25
2022-10-08T01:41:20.193Z,18.50
2022-10-08T01:43:52.976Z,25.85
2022-10-08T01:46:25.230Z,24.85
2022-10-08T01:48:53.758Z,23.73
2022-10-08T01:51:33.056Z,26.50
2022-10-08T01:54:02.951Z,24.65
2022-10-08T01:56:33.267Z,23.40
2022-10-08T02:01:43.602Z,23.23
2022-10-08T02:04:28.868Z,30.05
2022-10-08T02:06:59.224Z,26.63
2022-10-08T02:11:54.107Z,26.98
2022-10-08T02:14:25.802Z,23.23
2022-10-08T02:17:16.462Z,26.38
2022-10-08T02:20:03.596Z,29.00
2022-10-08T02:22:37.712Z,23.08
2022-10-08T02:25:22.156Z,26.23
2022-10-08T02:28:11.546Z,27.15
2022-10-08T02:30:48.640Z,38.37
2022-10-08T02:33:22.447Z,29.80
2022-10-08T02:35:57.054Z,31.05
2022-10-08T02:38:30.205Z,23.77
2022-10-08T02:40:59.794Z,30.17
2022-10-08T02:43:31.510Z,24.92
2022-10-08T02:46:10.813Z,28.33
2022-10-08T02:48:42.427Z,28.47
2022-10-08T02:51:14.098Z,26.80
2022-10-08T02:53:41.642Z,27.65
2022-10-08T02:56:16.880Z,28.17
2022-10-08T02:58:43.979Z,29.58
2022-10-08T03:01:26.595Z,27.90
2022-10-08T03:04:18.122Z,30.80
2022-10-08T03:06:45.600Z,29.08
2022-10-08T03:09:14.863Z,24.70
2022-10-08T03:11:41.631Z,23.58
2022-10-08T03:14:12.432Z,34.30
2022-10-08T03:16:42.069Z,28.88
2022-10-08T03:19:10.958Z,20.73
2022-10-08T03:21:39.435Z,31.27
2022-10-08T03:24:07.157Z,28.08
2022-10-08T03:26:33.579Z,25.95
2022-10-08T03:29:00.034Z,19.00
2022-10-08T03:31:26.450Z,29.80
2022-10-08T03:33:53.922Z,23.80
2022-10-08T03:36:22.090Z,33.08
2022-10-08T03:38:49.653Z,21.88
2022-10-08T03:41:17.039Z,27.90
2022-10-08T03:43:43.781Z,30.60
2022-10-08T03:46:11.748Z,26.25
2022-10-08T03:48:38.609Z,23.63
2022-10-08T03:51:11.601Z,29.23
2022-10-08T03:53:39.705Z,23.33
2022-10-08T03:56:09.035Z,32.15
2022-10-08T03:58:35.419Z,36.95
2022-10-08T04:01:05.346Z,28.63
2022-10-08T04:03:32.654Z,24.20
2022-10-08T04:05:59.750Z,22.50
2022-10-08T04:08:26.420Z,28.73
2022-10-08T04:10:53.318Z,26.80
2022-10-08T04:13:20.371Z,33.50
2022-10-08T04:15:48.274Z,27.05
2022-10-08T04:18:14.871Z,36.58
2022-10-08T04:20:42.292Z,27.83
2022-10-08T04:23:09.451Z,26.40
2022-10-08T04:25:36.439Z,26.35
2022-10-08T04:28:04.285Z,26.80
2022-10-08T04:30:31.866Z,25.70
2022-10-08T04:32:58.865Z,26.00
2022-10-08T04:35:25.627Z,24.70
2022-10-08T04:37:52.020Z,23.73
2022-10-08T04:40:18.405Z,25.33
2022-10-08T04:42:45.338Z,26.85
2022-10-08T04:45:11.883Z,35.88
2022-10-08T04:47:38.400Z,28.45
2022-10-08T04:50:05.249Z,27.20
2022-10-08T04:52:32.058Z,32.72
2022-10-08T04:54:58.415Z,29.40
2022-10-08T04:57:24.780Z,24.80
2022-10-08T05:00:13.600Z,26.45
2022-10-08T05:02:37.732Z,24.13
2022-10-08T05:05:04.510Z,28.65
2022-10-08T05:07:30.952Z,27.88
2022-10-08T05:09:57.345Z,24.27
2022-10-08T05:12:23.837Z,34.53
2022-10-08T05:14:50.195Z,18.63
2022-10-08T05:17:16.584Z,24.15
2022-10-08T05:19:43.043Z,29.90
2022-10-08T05:22:09.449Z,30.38
2022-10-08T05:24:35.954Z,20.42
2022-10-08T05:27:02.412Z,20.42
2022-10-08T05:29:30.348Z,25.38
2022-10-08T05:31:57.140Z,22.75
2022-10-08T05:34:23.776Z,26.98
2022-10-08T05:36:50.300Z,24.95
2022-10-08T05:39:17.251Z,27.10
2022-10-08T05:41:43.770Z,30.27
2022-10-08T05:44:11.293Z,24.38
2022-10-08T05:46:38.735Z,26.20
2022-10-08T05:49:08.170Z,28.15
2022-10-08T05:51:35.080Z,32.07
2022-10-08T05:54:01.525Z,26.75
2022-10-08T05:56:29.044Z,30.33
2022-10-08T05:58:55.788Z,23.30
2022-10-08T06:01:28.216Z,30.05
2022-10-08T06:03:57.309Z,28.27
2022-10-08T06:06:24.436Z,25.05
2022-10-08T06:08:56.568Z,28.15
2022-10-08T06:11:23.007Z,24.92
2022-10-08T06:13:53.779Z,22.92
2022-10-08T06:16:20.995Z,24.08
2022-10-08T06:18:47.592Z,22.98
2022-10-08T06:21:19.445Z,21.17
2022-10-08T06:24:00.018Z,22.90
2022-10-08T06:26:35.106Z,19.80
2022-10-08T06:29:02.885Z,22.95
2022-10-08T06:31:29.332Z,27.20
2022-10-08T06:34:08.361Z,27.25
2022-10-08T06:36:41.469Z,22.50
2022-10-08T06:39:11.653Z,29.08
2022-10-08T06:41:38.443Z,23.92
2022-10-08T06:44:07.275Z,22.17
2022-10-08T06:46:34.459Z,24.15
2022-10-08T06:49:05.949Z,23.58
2022-10-08T06:51:33.118Z,19.27
2022-10-08T06:54:07.827Z,22.35
2022-10-08T06:56:36.052Z,24.80
2022-10-08T06:59:02.838Z,18.40
2022-10-08T07:01:33.372Z,25.92
2022-10-08T07:04:05.430Z,23.65
2022-10-08T07:06:34.870Z,17.80
2022-10-08T07:09:02.356Z,21.70
2022-10-08T07:11:30.121Z,19.67
2022-10-08T07:13:56.967Z,20.25
2022-10-08T07:16:25.720Z,19.50
2022-10-08T07:18:53.726Z,21.42
2022-10-08T07:21:21.830Z,20.33
2022-10-08T07:23:48.783Z,17.50
2022-10-08T07:26:20.725Z,30.23
2022-10-08T07:28:53.554Z,22.00
2022-10-08T07:31:28.023Z,25.75
2022-10-08T07:33:54.849Z,19.27
2022-10-08T07:36:22.709Z,18.90
2022-10-08T07:38:56.542Z,21.13
2022-10-08T07:41:23.280Z,28.63
2022-10-08T07:43:52.373Z,22.27
2022-10-08T07:46:18.860Z,18.70
2022-10-08T07:48:45.574Z,18.98
2022-10-08T07:51:14.498Z,22.45
2022-10-08T07:53:41.320Z,21.08
2022-10-08T07:56:09.782Z,19.17
2022-10-08T07:58:36.719Z,22.00
2022-10-08T08:01:06.332Z,26.70
2022-10-08T08:03:33.257Z,22.02
2022-10-08T08:06:09.195Z,19.80
2022-10-08T08:08:37.722Z,21.75
2022-10-08T08:11:06.531Z,16.40
2022-10-08T08:13:36.980Z,19.15
2022-10-08T08:16:07.005Z,25.15
2022-10-08T08:18:36.953Z,23.40
2022-10-08T08:21:08.978Z,17.58
2022-10-08T08:23:38.532Z,19.98
2022-10-08T08:26:10.958Z,15.30
2022-10-08T08:28:37.741Z,13.95
2022-10-08T08:31:25.495Z,27.08
2022-10-08T08:33:55.335Z,21.23
2022-10-08T08:36:25.717Z,17.08
2022-10-08T08:38:52.236Z,18.67
2022-10-08T08:41:51.092Z,20.23
2022-10-08T08:44:24.599Z,17.05
2022-10-08T08:47:17.990Z,15.88
2022-10-08T08:49:50.775Z,15.73
2022-10-08T08:52:21.376Z,20.73
2022-10-08T08:54:49.527Z,18.95
2022-10-08T08:57:23.629Z,19.45
2022-10-08T08:59:56.437Z,21.15
2022-10-08T09:02:28.514Z,17.77
2022-10-08T09:05:00.482Z,18.48
2022-10-08T09:07:33.617Z,17.15
2022-10-08T09:10:05.450Z,23.08
2022-10-08T09:12:38.856Z,16.83
2022-10-08T09:15:19.909Z,21.80
2022-10-08T09:17:50.914Z,14.73
2022-10-08T09:20:24.515Z,20.73
2022-10-08T09:22:51.969Z,13.80
2022-10-08T09:25:22.485Z,15.43
2022-10-08T09:27:55.474Z,16.58
2022-10-08T09:30:24.634Z,14.05
2022-10-08T09:32:53.182Z,18.92
2022-10-08T09:35:19.739Z,12.85
2022-10-08T09:37:48.268Z,14.90
2022-10-08T09:40:23.798Z,11.65
2022-10-08T09:43:10.974Z,12.88
2022-10-08T09:45:48.668Z,14.52
2022-10-08T09:48:33.067Z,13.60
2022-10-08T09:51:12.467Z,13.88
2022-10-08T09:53:46.205Z,12.77
2022-10-08T09:56:14.759Z,9.93
2022-10-08T09:58:52.253Z,11.52
2022-10-08T10:01:19.349Z,9.57
2022-10-08T10:04:04.348Z,9.55
2022-10-08T10:06:38.990Z,8.75
2022-10-08T10:09:11.549Z,12.45
2022-10-08T10:11:42.876Z,13.38
2022-10-08T10:14:35.013Z,10.10
2022-10-08T10:17:13.987Z,9.95
2022-10-08T10:19:50.771Z,9.38
2022-10-08T10:22:58.284Z,14.50
2022-10-08T10:25:43.392Z,13.55
2022-10-08T10:28:28.821Z,9.55
2022-10-08T10:31:06.796Z,8.60
2022-10-08T10:33:37.470Z,11.07
2022-10-08T10:36:09.409Z,11.35
2022-10-08T10:38:45.114Z,10.38
2022-10-08T10:41:14.240Z,10.95
2022-10-08T10:43:49.859Z,8.68
2022-10-08T10:46:33.660Z,9.30
2022-10-08T10:49:00.541Z,9.40
2022-10-08T10:51:29.573Z,10.90
2022-10-08T10:54:17.698Z,10.52
2022-10-08T10:57:02.434Z,9.73
2022-10-08T11:00:00.040Z,9.63
2022-10-08T11:02:40.090Z,12.85
2022-10-08T11:08:18.445Z,11.40
2022-10-08T11:13:33.423Z,35.05
2022-10-08T11:16:02.618Z,34.17
2022-10-08T11:18:47.489Z,32.30
2022-10-08T11:21:40.037Z,31.83
2022-10-08T11:24:34.794Z,30.40
2022-10-08T11:27:21.610Z,33.45
2022-10-08T11:30:06.141Z,33.28
2022-10-08T11:32:33.909Z,31.92
2022-10-08T11:35:00.485Z,31.35
2022-10-08T11:37:38.861Z,31.08
2022-10-08T11:40:31.293Z,30.45
2022-10-08T11:43:09.825Z,28.63
2022-10-08T11:45:39.902Z,28.27
2022-10-08T11:48:32.088Z,27.48
2022-10-08T11:51:38.868Z,24.45
2022-10-08T11:54:23.177Z,21.48
2022-10-08T11:56:52.688Z,19.92
2022-10-08T11:59:41.637Z,18.45
2022-10-08T12:02:33.305Z,18.20
2022-10-08T12:05:32.807Z,16.90
2022-10-08T12:08:02.845Z,14.60
2022-10-08T12:10:38.593Z,14.30
2022-10-08T12:13:27.586Z,12.90
2022-10-08T12:15:55.373Z,11.15
2022-10-08T12:18:26.496Z,11.30
2022-10-08T12:21:17.741Z,10.57
2022-10-08T12:23:44.823Z,10.52
2022-10-08T12:26:13.993Z,10.65
2022-10-08T12:28:47.288Z,10.60
2022-10-08T12:31:28.197Z,11.20
2022-10-08T12:34:10.321Z,11.13
2022-10-08T12:37:01.949Z,10.88
2022-10-08T12:39:42.560Z,13.48
2022-10-08T12:42:21.214Z,9.43
2022-10-08T12:45:16.597Z,10.73
2022-10-08T12:48:14.884Z,12.73
2022-10-08T12:50:58.348Z,12.57
2022-10-08T12:53:25.526Z,15.85
2022-10-08T12:55:56.684Z,14.32
2022-10-08T12:58:26.540Z,10.32
2022-10-08T13:00:57.247Z,13.90
2022-10-08T13:03:25.389Z,12.73
2022-10-08T13:05:56.518Z,15.13
2022-10-08T13:08:38.656Z,11.85
2022-10-08T13:11:09.429Z,12.25
2022-10-08T13:13:38.766Z,11.10
2022-10-08T13:16:07.971Z,12.25
2022-10-08T13:18:36.415Z,14.73
2022-10-08T13:21:22.511Z,15.82
2022-10-08T13:23:48.927Z,17.92
2022-10-08T13:26:42.527Z,13.10
2022-10-08T13:29:23.975Z,15.45
2022-10-08T13:32:14.953Z,15.90
2022-10-08T13:34:44.852Z,19.67
2022-10-08T13:37:15.599Z,12.35
2022-10-08T13:39:49.771Z,14.43
2022-10-08T13:42:18.928Z,16.38
2022-10-08T13:44:45.460Z,13.35
2022-10-08T13:47:13.523Z,12.73
2022-10-08T13:49:40.751Z,12.27
2022-10-08T13:52:13.689Z,14.50
2022-10-08T13:54:42.336Z,15.18
2022-10-08T13:57:09.924Z,15.55
2022-10-08T13:59:36.395Z,12.32
2022-10-08T14:02:02.961Z,21.15
2022-10-08T14:04:29.528Z,17.17
2022-10-08T14:06:57.700Z,19.80
2022-10-08T14:09:26.815Z,20.60
2022-10-08T14:11:56.662Z,18.15
2022-10-08T14:14:24.179Z,11.05
2022-10-08T14:16:51.647Z,17.48
2022-10-08T14:19:20.513Z,18.33
2022-10-08T14:21:49.206Z,13.32
2022-10-08T14:24:16.002Z,14.57
2022-10-08T14:26:42.463Z,14.73
2022-10-08T14:29:08.868Z,15.65
2022-10-08T14:31:35.421Z,19.30
2022-10-08T14:34:02.176Z,21.17
2022-10-08T14:36:35.210Z,12.18
2022-10-08T14:39:01.658Z,14.38
2022-10-08T14:41:28.915Z,16.08
2022-10-08T14:43:55.334Z,19.35
2022-10-08T14:46:21.837Z,18.70
2022-10-08T14:48:48.257Z,20.77
2022-10-08T14:51:17.379Z,16.13
2022-10-08T14:54:10.346Z,15.77
2022-10-08T14:59:41.681Z,14.90
2022-10-08T15:02:27.592Z,12.32
2022-10-08T15:04:56.823Z,15.48
2022-10-08T15:07:26.255Z,15.17
2022-10-08T15:09:56.284Z,16.00
2022-10-08T15:12:32.064Z,12.20
2022-10-08T15:15:11.821Z,16.85
2022-10-08T15:17:47.460Z,17.52
2022-10-08T15:20:22.598Z,11.90
2022-10-08T15:23:03.485Z,14.20
2022-10-08T15:25:37.177Z,15.25
2022-10-08T15:28:15.853Z,15.13
2022-10-08T15:30:51.774Z,18.25
2022-10-08T15:33:26.434Z,35.33
2022-10-08T15:35:58.292Z,37.15
2022-10-08T15:38:37.775Z,33.25
2022-10-08T15:41:11.137Z,32.90
2022-10-08T15:43:41.400Z,31.52
2022-10-08T15:48:59.994Z,31.30
2022-10-08T15:54:06.487Z,33.13
2022-10-08T15:56:41.172Z,34.30
2022-10-08T15:59:15.221Z,34.72
2022-10-08T16:01:53.465Z,38.38
2022-10-08T16:04:24.163Z,35.88
2022-10-08T16:07:03.939Z,46.90
2022-10-08T16:09:41.241Z,40.97
2022-10-08T16:12:16.059Z,36.35
2022-10-08T16:14:47.753Z,39.65
2022-10-08T16:17:20.883Z,38.33
2022-10-08T16:19:51.792Z,37.38
2022-10-08T16:22:23.303Z,36.20
2022-10-08T16:24:58.009Z,38.35
2022-10-08T16:27:35.205Z,36.20
2022-10-08T16:30:10.359Z,37.25
2022-10-08T16:32:47.939Z,39.65
2022-10-08T16:35:20.274Z,40.58
2022-10-08T16:37:52.507Z,41.67
2022-10-08T16:40:25.274Z,31.83
2022-10-08T16:42:54.445Z,31.58
2022-10-08T16:45:24.428Z,33.15
2022-10-08T16:47:56.537Z,31.77
2022-10-08T16:50:26.233Z,31.95
2022-10-08T16:53:06.464Z,32.72
2022-10-08T16:55:41.570Z,33.33
2022-10-08T16:58:24.667Z,32.97
2022-10-08T17:01:00.823Z,32.85
2022-10-08T17:03:27.329Z,33.60
2022-10-08T17:05:53.701Z,32.47
2022-10-08T17:08:20.111Z,31.40
2022-10-08T17:10:46.472Z,32.35
2022-10-08T17:13:13.501Z,39.95
2022-10-08T17:15:39.895Z,32.50
2022-10-08T17:18:06.307Z,34.13
2022-10-08T17:20:32.766Z,32.00
2022-10-08T17:22:59.140Z,32.45
2022-10-08T17:25:25.547Z,31.88
2022-10-08T17:27:51.978Z,32.88
2022-10-08T17:30:18.392Z,33.42
2022-10-08T17:32:45.082Z,35.60
2022-10-08T17:35:11.636Z,37.42
2022-10-08T17:37:38.056Z,36.30
2022-10-08T17:40:04.796Z,44.03
2022-10-08T17:42:31.309Z,38.28
2022-10-08T17:44:58.570Z,40.08
2022-10-08T17:47:29.076Z,41.55
2022-10-08T17:49:55.713Z,39.05
2022-10-08T17:52:22.062Z,40.90
2022-10-08T17:54:48.444Z,38.72
2022-10-08T17:57:14.787Z,38.67
2022-10-08T17:59:41.236Z,37.75
2022-10-08T18:02:08.546Z,39.95
2022-10-08T18:04:35.006Z,85.43
2022-10-08T18:07:03.654Z,66.60
2022-10-08T18:09:30.153Z,55.38
2022-10-08T18:11:56.541Z,45.53
2022-10-08T18:14:23.268Z,39.45
2022-10-08T18:16:50.150Z,38.58
2022-10-08T18:19:17.803Z,41.78
2022-10-08T18:21:44.243Z,38.30
2022-10-08T18:24:11.141Z,41.05
2022-10-08T18:26:37.533Z,39.40
2022-10-08T18:29:11.577Z,40.90
2022-10-08T18:31:40.055Z,39.95
2022-10-08T18:34:08.927Z,41.42
2022-10-08T18:36:37.768Z,40.50
2022-10-08T18:39:07.559Z,47.20
2022-10-08T18:41:41.132Z,45.85
2022-10-08T18:44:10.833Z,39.65
2022-10-08T18:46:38.515Z,46.03
2022-10-08T18:49:06.126Z,38.33
2022-10-08T18:51:34.063Z,40.10
2022-10-08T18:54:02.206Z,64.38
2022-10-08T18:56:35.596Z,43.78
2022-10-08T18:59:04.933Z,42.75
2022-10-08T19:01:34.289Z,37.80
2022-10-08T19:04:02.528Z,38.33
2022-10-08T19:06:32.284Z,37.45
2022-10-08T19:09:00.025Z,42.53
2022-10-08T19:11:33.073Z,36.55
2022-10-08T19:14:06.781Z,43.63
2022-10-08T19:16:36.060Z,38.20
2022-10-08T19:19:05.178Z,37.97
2022-10-08T19:21:33.558Z,43.10
2022-10-08T19:24:00.831Z,40.50
2022-10-08T19:26:28.585Z,36.10
2022-10-08T19:28:55.233Z,41.60
2022-10-08T19:31:27.778Z,35.33
2022-10-08T19:33:57.734Z,38.50
2022-10-08T19:36:25.515Z,35.72
2022-10-08T19:39:04.718Z,34.95
2022-10-08T19:41:31.995Z,41.42
2022-10-08T19:43:59.421Z,41.60
2022-10-08T19:46:27.142Z,39.85
2022-10-08T19:48:56.283Z,37.80
2022-10-08T19:51:23.648Z,45.75
2022-10-08T19:53:50.435Z,39.05
2022-10-08T19:56:20.866Z,39.17
2022-10-08T19:58:55.519Z,42.35
2022-10-08T20:01:27.647Z,40.90
2022-10-08T20:03:55.859Z,41.78
2022-10-08T20:06:25.175Z,45.88
2022-10-08T20:08:57.402Z,45.37
2022-10-08T20:11:24.176Z,39.78
2022-10-08T20:13:52.218Z,41.58
2022-10-08T20:16:21.705Z,44.10
2022-10-08T20:18:53.312Z,40.67
2022-10-08T20:21:20.867Z,41.72
2022-10-08T20:23:47.991Z,42.45
2022-10-08T20:26:20.277Z,37.97
2022-10-08T20:28:48.832Z,40.10
2022-10-08T20:31:21.624Z,46.97
2022-10-08T20:33:48.831Z,39.65
2022-10-08T20:36:17.605Z,36.67
2022-10-08T20:38:44.101Z,40.25
2022-10-08T20:41:10.941Z,38.08
2022-10-08T20:43:38.973Z,40.72
2022-10-08T20:46:08.229Z,36.85
2022-10-08T20:48:36.316Z,46.40
2022-10-08T20:51:05.556Z,41.67
2022-10-08T20:53:33.123Z,42.38
2022-10-08T20:56:11.741Z,37.85
2022-10-08T20:58:38.752Z,40.08
2022-10-08T21:01:16.847Z,45.25
2022-10-08T21:03:44.477Z,44.25
2022-10-08T21:06:14.693Z,36.70
2022-10-08T21:08:43.553Z,36.53
2022-10-08T21:11:13.139Z,39.45
2022-10-08T21:13:40.261Z,40.60
2022-10-08T21:16:09.598Z,44.33
2022-10-08T21:18:36.930Z,53.50
2022-10-08T21:21:11.839Z,35.47
2022-10-08T21:23:38.852Z,36.85
2022-10-08T21:26:07.131Z,44.47
2022-10-08T21:28:33.985Z,41.58
2022-10-08T21:31:03.955Z,37.08
2022-10-08T21:35:58.037Z,42.15
2022-10-08T21:38:24.826Z,35.80
2022-10-08T21:40:59.695Z,38.90
2022-10-08T21:43:26.113Z,41.47
2022-10-08T21:45:55.836Z,39.55
2022-10-08T21:48:23.750Z,41.75
2022-10-08T21:51:02.208Z,42.85
2022-10-08T21:53:31.266Z,36.22
2022-10-08T21:56:03.739Z,37.63
2022-10-08T21:58:34.759Z,37.15
2022-10-08T22:01:01.320Z,35.53
2022-10-08T22:03:28.072Z,38.78
2022-10-08T22:05:59.676Z,37.38
2022-10-08T22:08:28.206Z,36.58
2022-10-08T22:10:55.566Z,39.97
2022-10-08T22:13:22.429Z,38.65
2022-10-08T22:15:58.141Z,40.60
2022-10-08T22:18:27.328Z,38.60
2022-10-08T22:20:53.964Z,35.67
2022-10-08T22:23:21.703Z,35.45
2022-10-08T22:25:54.965Z,40.28
2022-10-08T22:28:22.182Z,40.60
2022-10-08T22:30:49.192Z,37.03
2022-10-08T22:33:16.250Z,41.50
2022-10-08T22:35:43.496Z,35.97
2022-10-08T22:38:10.434Z,35.88
2022-10-08T22:40:37.131Z,49.00
2022-10-08T22:43:04.070Z,47.03
2022-10-08T22:45:30.720Z,42.03
2022-10-08T22:47:57.118Z,37.60
2022-10-08T22:50:23.473Z,40.35
2022-10-08T22:52:50.277Z,38.63
2022-10-08T22:55:17.460Z,38.42
2022-10-08T22:57:44.074Z,43.72
2022-10-08T23:00:11.319Z,46.15
2022-10-08T23:02:37.681Z,44.30
2022-10-08T23:05:04.491Z,44.75
2022-10-08T23:07:30.889Z,37.38
2022-10-08T23:09:57.669Z,37.03
2022-10-08T23:12:24.166Z,39.47
2022-10-08T23:14:50.611Z,36.53
2022-10-08T23:17:19.916Z,36.17
2022-10-08T23:19:46.363Z,42.22
2022-10-08T23:22:12.735Z,35.85
2022-10-08T23:24:39.195Z,36.85
2022-10-08T23:27:09.474Z,35.42
2022-10-08T23:29:36.242Z,35.70
2022-10-08T23:32:02.669Z,37.30
2022-10-08T23:34:29.101Z,35.63
2022-10-08T23:36:55.538Z,41.75
2022-10-08T23:39:22.087Z,39.53
2022-10-08T23:41:48.539Z,36.47
2022-10-08T23:44:15.062Z,36.05
2022-10-08T23:46:41.517Z,35.22
2022-10-08T23:49:08.035Z,37.90
2022-10-08T23:51:34.471Z,34.60
2022-10-08T23:54:03.774Z,36.22
2022-10-08T23:56:30.607Z,35.05
2022-10-08T23:58:57.887Z,34.78
